Time;durP1;ratioP1;P1;durP2;ratioP2;P2;SDS_P1;SDS_P2;PMS_P1;PMS_P2;Temp;Humidity;BMP_temperature;BMP_pressure;BME280_temperature;BME280_humidity;BME280_pressure;Samples;Min_cycle;Max_cycle;Signal;HPM_P1;HPM_P2
2022/04/16 00:02:12;;;;;;;7.72;3.92;;;13.20;99.90;;;;;;5013603;28;20105;-70
2022/04/16 00:04:41;;;;;;;10.13;4.32;;;13.20;99.90;;;;;;5014294;28;20376;-70
2022/04/16 00:07:07;;;;;;;7.43;3.70;;;13.20;99.90;;;;;;5014108;28;20033;-70
2022/04/16 00:09:33;;;;;;;9.40;4.38;;;13.30;99.90;;;;;;5013550;28;20380;-71
2022/04/16 00:11:59;;;;;;;9.98;5.22;;;13.30;99.90;;;;;;5013795;28;20089;-66
2022/04/16 00:14:24;;;;;;;9.80;4.50;;;13.30;99.90;;;;;;5013694;28;20030;-72
2022/04/16 00:16:50;;;;;;;13.15;4.60;;;13.30;99.90;;;;;;5013118;28;20109;-67
2022/04/16 00:19:16;;;;;;;8.13;3.83;;;13.30;99.90;;;;;;5013338;28;20358;-70
2022/04/16 00:21:42;;;;;;;6.75;3.83;;;13.20;99.90;;;;;;5013234;28;21133;-70
2022/04/16 00:24:08;;;;;;;8.65;4.00;;;13.20;99.90;;;;;;5013304;28;20045;-71
2022/04/16 00:26:40;;;;;;;8.82;4.40;;;13.10;99.90;;;;;;5012194;28;20034;-71
2022/04/16 00:29:08;;;;;;;8.77;4.45;;;13.10;99.90;;;;;;5013461;28;20034;-71
2022/04/16 00:31:34;;;;;;;7.63;4.07;;;13.10;99.90;;;;;;5013430;28;20033;-72
2022/04/16 00:34:01;;;;;;;8.65;4.50;;;13.00;99.90;;;;;;5013401;28;20041;-72
2022/04/16 00:36:27;;;;;;;9.88;4.78;;;13.00;99.90;;;;;;5013705;28;20076;-73
2022/04/16 00:38:53;;;;;;;13.38;5.28;;;12.90;99.90;;;;;;5013096;28;20034;-69
2022/04/16 00:41:19;;;;;;;10.10;4.38;;;12.90;99.90;;;;;;5013583;28;20034;-69
2022/04/16 00:43:45;;;;;;;9.85;3.90;;;12.80;99.90;;;;;;5013292;28;20504;-70
2022/04/16 00:46:10;;;;;;;10.88;4.43;;;12.80;99.90;;;;;;5013156;28;20022;-72
2022/04/16 00:48:36;;;;;;;9.88;5.05;;;12.80;99.90;;;;;;5013169;28;20034;-70
2022/04/16 00:51:02;;;;;;;10.00;4.40;;;12.80;99.90;;;;;;5013244;28;20401;-69
2022/04/16 00:53:29;;;;;;;8.43;4.22;;;12.80;99.90;;;;;;5013178;28;20540;-72
2022/04/16 00:55:56;;;;;;;6.20;4.10;;;12.70;99.90;;;;;;5013292;28;20026;-66
2022/04/16 00:58:22;;;;;;;12.38;5.78;;;12.70;99.90;;;;;;5013144;28;20036;-68
2022/04/16 01:00:47;;;;;;;13.38;5.18;;;12.60;99.90;;;;;;5013204;28;20018;-66
2022/04/16 01:03:14;;;;;;;9.20;4.63;;;12.60;99.90;;;;;;5013023;28;20030;-70
2022/04/16 01:05:40;;;;;;;9.57;4.80;;;12.50;99.90;;;;;;5013130;28;20500;-70
2022/04/16 01:08:06;;;;;;;9.73;4.88;;;12.60;99.90;;;;;;5012918;28;20046;-67
2022/04/16 01:10:33;;;;;;;8.85;4.32;;;12.60;99.90;;;;;;5028132;28;20022;-67
2022/04/16 01:13:01;;;;;;;8.10;4.50;;;12.60;99.90;;;;;;5013066;28;20061;-66
2022/04/16 01:15:29;;;;;;;8.57;4.03;;;12.60;99.90;;;;;;5027912;28;20041;-69
2022/04/16 01:17:56;;;;;;;11.45;5.65;;;12.60;99.90;;;;;;5013018;28;20025;-68
2022/04/16 01:20:22;;;;;;;11.27;5.88;;;12.60;99.90;;;;;;5012732;28;20054;-71
2022/04/16 01:22:50;;;;;;;11.60;5.55;;;12.60;99.90;;;;;;5012558;28;20058;-70
2022/04/16 01:25:17;;;;;;;12.90;5.20;;;12.60;99.90;;;;;;5012808;28;20423;-68
2022/04/16 01:27:43;;;;;;;10.25;5.70;;;12.50;99.90;;;;;;5012297;28;20076;-72
2022/04/16 01:30:22;;;;;;;10.05;4.90;;;12.50;99.90;;;;;;5012076;28;20025;-67
2022/04/16 01:32:48;;;;;;;9.27;5.10;;;12.50;99.90;;;;;;5011935;28;20030;-71
2022/04/16 01:35:16;;;;;;;11.93;4.78;;;12.50;99.90;;;;;;5012254;28;20053;-71
2022/04/16 01:37:42;;;;;;;11.50;4.82;;;12.30;99.90;;;;;;5012432;28;20026;-69
2022/04/16 01:40:10;;;;;;;12.57;5.18;;;12.30;99.90;;;;;;5012395;28;20408;-73
2022/04/16 01:42:37;;;;;;;12.15;5.75;;;12.20;99.90;;;;;;5012585;28;20047;-72
2022/04/16 01:45:10;;;;;;;7.78;4.72;;;12.10;99.90;;;;;;5011863;28;20022;-73
2022/04/16 01:47:38;;;;;;;8.63;4.57;;;12.20;99.90;;;;;;5012394;28;20040;-73
2022/04/16 01:50:09;;;;;;;10.80;5.50;;;12.20;99.90;;;;;;5012087;28;20117;-73
2022/04/16 01:52:39;;;;;;;8.40;4.97;;;12.20;99.90;;;;;;5012391;28;20036;-72
2022/04/16 01:55:05;;;;;;;11.05;5.35;;;12.10;99.90;;;;;;5012416;28;20080;-70
2022/04/16 01:57:32;;;;;;;12.38;4.50;;;12.10;99.90;;;;;;5012348;28;20026;-68
2022/04/16 01:59:57;;;;;;;10.05;4.95;;;12.10;99.90;;;;;;5012143;28;20465;-72
2022/04/16 02:02:23;;;;;;;10.93;5.88;;;12.00;99.90;;;;;;5012713;28;20029;-70
2022/04/16 02:04:50;;;;;;;12.15;5.90;;;12.00;99.90;;;;;;5012646;28;20540;-72
2022/04/16 02:07:16;;;;;;;10.05;5.53;;;11.90;99.90;;;;;;5012044;28;20034;-71
2022/04/16 02:09:42;;;;;;;9.27;5.05;;;11.90;99.90;;;;;;5012271;28;20030;-72
2022/04/16 02:12:09;;;;;;;13.38;6.65;;;11.90;99.90;;;;;;5012183;28;20036;-67
2022/04/16 02:14:34;;;;;;;10.98;6.05;;;11.90;99.90;;;;;;5011887;28;20034;-71
2022/04/16 02:17:00;;;;;;;12.98;5.78;;;11.80;99.90;;;;;;5012072;28;20033;-73
2022/04/16 02:19:27;;;;;;;10.73;5.53;;;11.80;99.90;;;;;;5012146;28;20026;-71
2022/04/16 02:21:52;;;;;;;11.05;5.82;;;11.80;99.90;;;;;;5011856;28;20080;-72
2022/04/16 02:24:19;;;;;;;11.57;6.72;;;11.70;99.90;;;;;;5012002;28;20033;-72
2022/04/16 02:26:45;;;;;;;14.50;6.38;;;11.70;99.90;;;;;;5011980;28;20113;-73
2022/04/16 02:29:12;;;;;;;11.75;5.85;;;11.60;99.90;;;;;;5011977;28;20113;-72
2022/04/16 02:31:38;;;;;;;12.25;6.07;;;11.60;99.90;;;;;;5011855;28;20026;-70
2022/04/16 02:34:05;;;;;;;12.82;5.32;;;11.50;99.90;;;;;;5010752;28;20482;-71
2022/04/16 02:36:32;;;;;;;10.02;6.07;;;11.60;99.90;;;;;;5010322;28;20120;-72
2022/04/16 02:38:59;;;;;;;13.75;5.85;;;11.50;99.90;;;;;;5011799;28;20026;-73
2022/04/16 02:41:26;;;;;;;10.55;5.88;;;11.60;99.90;;;;;;5015049;28;20026;-70
2022/04/16 02:43:58;;;;;;;11.98;6.40;;;11.50;99.90;;;;;;5015989;28;20033;-70
2022/04/16 02:49:09;;;;;;;19.58;7.03;;;11.60;99.90;;;;;;5015297;28;20042;-69
2022/04/16 02:51:35;;;;;;;11.73;6.22;;;11.60;99.90;;;;;;5015341;28;20046;-71
2022/04/16 02:54:01;;;;;;;12.18;7.38;;;11.60;99.90;;;;;;5015467;28;20038;-73
2022/04/16 02:56:27;;;;;;;14.35;6.63;;;11.60;99.90;;;;;;5015753;28;20022;-73
2022/04/16 02:58:53;;;;;;;10.95;6.55;;;11.70;99.90;;;;;;5015506;28;20045;-73
2022/04/16 03:01:19;;;;;;;13.68;6.57;;;11.60;99.90;;;;;;5015332;28;20149;-68
2022/04/16 03:03:45;;;;;;;13.48;6.68;;;11.60;99.90;;;;;;5015468;28;20057;-73
2022/04/16 03:06:11;;;;;;;12.93;6.47;;;11.70;99.90;;;;;;5015375;28;20407;-69
2022/04/16 03:08:37;;;;;;;11.60;6.55;;;11.70;99.90;;;;;;5015338;28;20033;-69
2022/04/16 03:11:06;;;;;;;13.13;6.80;;;11.70;99.90;;;;;;5015213;28;20080;-72
2022/04/16 03:13:35;;;;;;;13.25;6.82;;;11.60;99.90;;;;;;5014860;28;20033;-71
2022/04/16 03:18:46;;;;;;;13.77;6.90;;;11.70;99.90;;;;;;5014568;28;20026;-73
2022/04/16 03:21:12;;;;;;;13.55;7.28;;;11.70;99.90;;;;;;5014760;28;20412;-70
2022/04/16 03:23:39;;;;;;;13.88;6.28;;;11.70;99.90;;;;;;5014882;28;20026;-71
2022/04/16 03:26:04;;;;;;;13.63;7.30;;;11.60;99.90;;;;;;5015417;28;20034;-72
2022/04/16 03:28:32;;;;;;;15.93;7.65;;;11.70;99.90;;;;;;5014644;28;20392;-73
2022/04/16 03:30:58;;;;;;;15.18;7.75;;;11.70;99.90;;;;;;5014725;28;20040;-70
2022/04/16 03:33:24;;;;;;;14.93;7.45;;;11.70;99.90;;;;;;5015009;28;20092;-73
2022/04/16 03:35:51;;;;;;;11.95;7.18;;;11.70;99.90;;;;;;5014742;28;20030;-72
2022/04/16 03:38:20;;;;;;;15.95;6.80;;;11.80;99.90;;;;;;5014750;28;20459;-70
2022/04/16 03:40:48;;;;;;;12.63;7.35;;;11.80;99.90;;;;;;5014825;28;20022;-71
2022/04/16 03:43:14;;;;;;;12.10;7.00;;;11.80;99.90;;;;;;5014730;28;20428;-71
2022/04/16 03:45:40;;;;;;;11.27;6.72;;;11.80;99.90;;;;;;5013663;28;20037;-73
2022/04/16 03:48:07;;;;;;;12.40;7.20;;;11.90;99.90;;;;;;5014269;28;20042;-71
2022/04/16 03:50:35;;;;;;;16.20;7.03;;;11.90;99.90;;;;;;5014457;28;20104;-70
2022/04/16 03:53:01;;;;;;;11.35;6.53;;;11.90;99.90;;;;;;5013238;28;20034;-72
2022/04/16 04:01:00;;;;;;;12.75;7.03;;;12.00;99.90;;;;;;5014084;28;20053;-73
2022/04/16 04:03:26;;;;;;;15.20;8.38;;;12.00;99.90;;;;;;5013836;28;20427;-71
2022/04/16 04:05:57;;;;;;;13.57;7.97;;;12.00;99.90;;;;;;5013744;28;20080;-67
2022/04/16 04:08:24;;;;;;;13.98;7.15;;;12.10;99.90;;;;;;5013382;28;20045;-70
2022/04/16 04:10:50;;;;;;;14.88;8.48;;;12.00;99.90;;;;;;5013396;28;20033;-72
2022/04/16 04:13:17;;;;;;;12.27;7.13;;;12.00;99.90;;;;;;5013596;28;20025;-72
2022/04/16 04:15:43;;;;;;;13.15;7.38;;;12.10;99.90;;;;;;5013311;28;20064;-69
2022/04/16 04:18:09;;;;;;;13.02;7.45;;;12.10;99.90;;;;;;5013785;28;20095;-72
2022/04/16 04:20:35;;;;;;;15.13;7.63;;;12.10;99.90;;;;;;5013892;28;20033;-71
2022/04/16 04:23:03;;;;;;;15.15;7.88;;;12.00;99.90;;;;;;5013407;28;20033;-71
2022/04/16 04:25:29;;;;;;;15.05;8.73;;;12.10;99.90;;;;;;5013510;28;20197;-72
2022/04/16 04:27:55;;;;;;;14.00;7.90;;;12.10;99.90;;;;;;5013440;28;20169;-71
2022/04/16 04:30:22;;;;;;;14.70;7.13;;;12.10;99.90;;;;;;5013845;28;20080;-70
2022/04/16 04:32:47;;;;;;;15.35;7.00;;;12.10;99.90;;;;;;5013194;28;20037;-71
2022/04/16 04:35:13;;;;;;;14.23;7.60;;;12.10;99.90;;;;;;5013434;28;20412;-68
2022/04/16 04:37:39;;;;;;;16.25;8.65;;;12.10;99.90;;;;;;5013481;28;20108;-72
2022/04/16 04:40:06;;;;;;;18.50;8.15;;;12.10;99.90;;;;;;5013378;28;20503;-72
2022/04/16 04:42:33;;;;;;;14.90;7.95;;;12.10;99.90;;;;;;5013599;28;20092;-71
2022/04/16 04:45:06;;;;;;;15.07;7.78;;;12.20;99.90;;;;;;5013005;28;20022;-72
2022/04/16 04:47:31;;;;;;;14.10;7.68;;;12.30;99.90;;;;;;5013422;28;20046;-68
2022/04/16 04:49:57;;;;;;;19.52;9.52;;;12.30;99.90;;;;;;5013047;28;20069;-71
2022/04/16 04:52:29;;;;;;;17.63;9.35;;;12.40;99.90;;;;;;5013265;28;20726;-73
2022/04/16 04:54:56;;;;;;;17.95;9.57;;;12.40;99.90;;;;;;5012944;28;20141;-73
2022/04/16 04:57:22;;;;;;;17.98;8.77;;;12.40;99.90;;;;;;5012923;28;20026;-70
2022/04/16 04:59:48;;;;;;;13.40;8.70;;;12.40;99.90;;;;;;5013128;28;20110;-73
2022/04/16 05:02:15;;;;;;;17.90;10.00;;;12.40;99.90;;;;;;5012746;28;20026;-72
2022/04/16 05:04:41;;;;;;;17.00;8.55;;;12.30;99.90;;;;;;5013141;28;20395;-71
2022/04/16 05:07:07;;;;;;;16.33;9.45;;;12.40;99.90;;;;;;5013123;28;20044;-70
2022/04/16 05:09:34;;;;;;;16.88;9.20;;;12.40;99.90;;;;;;5012543;28;20026;-68
2022/04/16 05:12:00;;;;;;;15.25;8.38;;;12.40;99.90;;;;;;5013096;28;20087;-73
2022/04/16 05:14:26;;;;;;;16.73;9.07;;;12.40;99.90;;;;;;5011258;28;20070;-72
2022/04/16 05:16:51;;;;;;;18.35;8.80;;;12.40;99.90;;;;;;5012738;28;20061;-71
2022/04/16 05:19:17;;;;;;;16.17;9.13;;;12.30;99.90;;;;;;5012795;28;20025;-71
2022/04/16 05:21:43;;;;;;;14.77;9.70;;;12.30;99.90;;;;;;5012354;28;20037;-68
2022/04/16 05:24:10;;;;;;;17.50;9.23;;;12.40;99.90;;;;;;5012390;28;20058;-70
2022/04/16 05:26:38;;;;;;;15.35;8.63;;;12.40;99.90;;;;;;5012546;28;20026;-73
2022/04/16 05:29:04;;;;;;;16.45;8.70;;;12.40;99.90;;;;;;5012709;28;20061;-74
2022/04/16 05:31:30;;;;;;;20.33;10.18;;;12.40;99.90;;;;;;5012458;28;20018;-72
2022/04/16 05:36:42;;;;;;;20.73;10.05;;;12.50;99.90;;;;;;5012212;28;20030;-70
2022/04/16 05:39:09;;;;;;;19.85;9.93;;;12.60;99.90;;;;;;5012328;28;20022;-71
2022/04/16 05:41:34;;;;;;;19.90;10.13;;;12.60;99.90;;;;;;5012342;28;20119;-73
2022/04/16 05:44:04;;;;;;;18.20;9.88;;;12.70;99.90;;;;;;5012084;28;20057;-73
2022/04/16 05:46:30;;;;;;;17.25;10.15;;;12.70;99.90;;;;;;5012060;28;20037;-73
2022/04/16 05:48:56;;;;;;;14.68;9.27;;;12.70;99.90;;;;;;5011768;28;20030;-69
2022/04/16 05:51:23;;;;;;;21.27;9.95;;;12.70;99.90;;;;;;5011949;28;20072;-74
2022/04/16 05:53:49;;;;;;;16.33;8.75;;;12.70;99.90;;;;;;5011925;28;20033;-71
2022/04/16 05:56:17;;;;;;;15.80;9.75;;;12.70;99.90;;;;;;5011008;28;20472;-69
2022/04/16 05:58:43;;;;;;;21.95;10.05;;;12.70;99.90;;;;;;5011297;28;20025;-70
2022/04/16 06:01:10;;;;;;;18.15;9.68;;;12.80;99.90;;;;;;5010242;28;20042;-73
2022/04/16 06:03:39;;;;;;;16.85;9.15;;;12.70;99.90;;;;;;5011732;28;20468;-71
2022/04/16 06:06:05;;;;;;;17.27;9.48;;;12.70;99.90;;;;;;5011927;28;20040;-72
2022/04/16 06:08:31;;;;;;;14.80;8.77;;;12.70;99.90;;;;;;5011106;28;20030;-69
2022/04/16 06:10:56;;;;;;;16.35;10.45;;;12.70;99.90;;;;;;5010223;28;20084;-74
2022/04/16 06:13:22;;;;;;;19.05;9.68;;;12.70;99.90;;;;;;5011791;28;20014;-70
2022/04/16 06:15:48;;;;;;;15.70;9.02;;;12.70;99.90;;;;;;5016178;28;20105;-73
2022/04/16 06:18:14;;;;;;;16.48;8.38;;;12.70;99.90;;;;;;5018099;28;20026;-69
2022/04/16 06:20:40;;;;;;;22.00;9.52;;;12.60;99.90;;;;;;5018301;28;20082;-73
2022/04/16 06:23:07;;;;;;;17.35;9.40;;;12.50;99.90;;;;;;5018276;28;20112;-74
2022/04/16 06:25:33;;;;;;;16.88;8.30;;;12.50;99.90;;;;;;5017451;28;20059;-74
2022/04/16 06:28:00;;;;;;;16.52;8.10;;;12.50;99.90;;;;;;5017783;28;20033;-73
2022/04/16 06:30:27;;;;;;;19.25;8.75;;;12.50;99.90;;;;;;5017710;28;20057;-71
2022/04/16 06:32:53;;;;;;;14.75;8.73;;;12.50;99.90;;;;;;5017721;28;20048;-72
2022/04/16 06:35:19;;;;;;;13.70;8.38;;;12.50;99.90;;;;;;5015659;28;20034;-70
2022/04/16 06:37:45;;;;;;;15.18;8.05;;;12.50;99.90;;;;;;5017334;28;20053;-71
2022/04/16 06:40:11;;;;;;;14.57;8.80;;;12.50;99.90;;;;;;5017388;28;20018;-72
2022/04/16 06:42:38;;;;;;;13.73;7.90;;;12.50;99.90;;;;;;5017586;28;20029;-71
2022/04/16 06:45:09;;;;;;;12.45;7.25;;;12.50;99.90;;;;;;5017709;28;20112;-72
2022/04/16 06:47:35;;;;;;;13.43;7.30;;;12.50;99.90;;;;;;5016009;28;20400;-73
2022/04/16 06:50:02;;;;;;;14.55;8.43;;;12.50;99.90;;;;;;5017172;28;20066;-72
2022/04/16 06:52:28;;;;;;;15.45;8.98;;;12.60;99.90;;;;;;5016898;28;20033;-73
2022/04/16 06:54:56;;;;;;;15.38;8.90;;;12.70;99.90;;;;;;5017975;28;20455;-73
2022/04/16 06:57:22;;;;;;;17.17;8.65;;;12.70;99.90;;;;;;5017981;28;20383;-73
2022/04/16 06:59:48;;;;;;;13.57;7.00;;;12.60;99.90;;;;;;5017792;28;20026;-73
2022/04/16 07:02:14;;;;;;;14.63;7.97;;;12.60;99.90;;;;;;5017924;28;20536;-75
2022/04/16 07:04:41;;;;;;;12.80;7.97;;;12.50;99.90;;;;;;5018170;28;20189;-75
2022/04/16 07:07:08;;;;;;;11.68;7.13;;;12.40;99.90;;;;;;5014002;28;20073;-75
2022/04/16 07:09:38;;;;;;;14.77;9.25;;;12.40;99.90;;;;;;5016568;28;20407;-74
2022/04/16 07:12:06;;;;;;;17.83;8.90;;;12.50;99.90;;;;;;5016977;28;20054;-73
2022/04/16 07:14:33;;;;;;;18.33;9.73;;;12.50;99.90;;;;;;5016799;28;20029;-73
2022/04/16 07:17:01;;;;;;;18.73;10.60;;;12.60;99.90;;;;;;5016743;28;20038;-73
2022/04/16 07:19:28;;;;;;;21.88;9.10;;;12.60;99.90;;;;;;5017124;28;20464;-72
2022/04/16 07:21:55;;;;;;;16.30;9.60;;;12.60;99.90;;;;;;5016832;28;20353;-68
2022/04/16 07:24:22;;;;;;;18.10;9.13;;;12.60;99.90;;;;;;5017094;28;20025;-71
2022/04/16 07:26:48;;;;;;;14.90;8.23;;;12.60;99.90;;;;;;5015807;28;20080;-70
2022/04/16 07:29:14;;;;;;;15.18;7.85;;;12.50;99.90;;;;;;5014137;28;20484;-72
2022/04/16 07:31:40;;;;;;;14.07;8.52;;;12.50;99.90;;;;;;5013805;28;20030;-73
2022/04/16 07:34:06;;;;;;;13.98;7.47;;;12.50;99.90;;;;;;5014184;28;20026;-74
2022/04/16 07:36:32;;;;;;;13.55;7.72;;;12.50;99.90;;;;;;5003915;28;20034;-71
2022/04/16 07:38:57;;;;;;;14.30;8.35;;;12.40;99.90;;;;;;5014584;28;20030;-70
2022/04/16 07:41:23;;;;;;;15.15;8.50;;;12.40;99.90;;;;;;5014073;28;20084;-71
2022/04/16 07:43:49;;;;;;;13.57;6.93;;;12.40;99.90;;;;;;5014300;28;20029;-71
2022/04/16 07:46:18;;;;;;;18.52;8.18;;;12.30;99.90;;;;;;5012089;28;20030;-73
2022/04/16 07:48:44;;;;;;;13.38;7.35;;;12.30;99.90;;;;;;5014293;28;20129;-73
2022/04/16 07:51:10;;;;;;;15.80;7.85;;;12.30;99.90;;;;;;5013794;28;20054;-68
2022/04/16 07:53:36;;;;;;;14.95;8.23;;;12.30;99.90;;;;;;5013857;28;20030;-73
2022/04/16 07:56:02;;;;;;;18.17;8.65;;;12.20;99.90;;;;;;5014227;28;20388;-72
2022/04/16 07:58:28;;;;;;;15.77;9.25;;;12.20;99.90;;;;;;5013962;28;20022;-72
2022/04/16 08:00:53;;;;;;;15.55;7.25;;;12.20;99.90;;;;;;5014129;28;20030;-72
2022/04/16 08:03:19;;;;;;;14.32;8.57;;;12.20;99.90;;;;;;5013852;28;20149;-72
2022/04/16 08:05:45;;;;;;;15.65;9.23;;;12.30;99.90;;;;;;5007012;28;20120;-72
2022/04/16 08:08:11;;;;;;;15.75;8.30;;;12.30;99.90;;;;;;5002444;28;20373;-68
2022/04/16 08:10:37;;;;;;;14.88;7.82;;;12.40;99.90;;;;;;5013602;28;20018;-72
2022/04/16 08:13:07;;;;;;;14.63;8.50;;;12.50;99.90;;;;;;5012311;28;20533;-71
2022/04/16 08:15:33;;;;;;;14.80;8.07;;;12.60;99.90;;;;;;5012945;28;20032;-68
2022/04/16 08:17:59;;;;;;;14.60;7.93;;;12.70;99.90;;;;;;5013218;28;20025;-72
2022/04/16 08:20:25;;;;;;;14.60;8.25;;;12.90;99.90;;;;;;5013607;28;20792;-72
2022/04/16 08:22:52;;;;;;;14.82;7.13;;;13.00;99.90;;;;;;5012949;28;20104;-73
2022/04/16 08:27:51;;;;;;;14.68;8.18;;;13.00;99.90;;;;;;5013185;28;20048;-71
2022/04/16 08:30:18;;;;;;;16.65;8.25;;;13.20;99.90;;;;;;5006634;28;20505;-72
2022/04/16 08:32:44;;;;;;;11.90;8.00;;;13.30;99.90;;;;;;4992469;28;20030;-72
2022/04/16 08:35:12;;;;;;;13.82;7.53;;;13.50;99.90;;;;;;4992823;28;20027;-71
2022/04/16 08:37:38;;;;;;;12.40;7.50;;;13.60;99.90;;;;;;4993287;28;20025;-72
2022/04/16 08:40:05;;;;;;;17.33;8.35;;;13.70;99.90;;;;;;4997627;28;20022;-72
2022/04/16 08:42:33;;;;;;;12.48;7.68;;;13.70;99.90;;;;;;5012383;28;20022;-71
2022/04/16 08:45:01;;;;;;;15.40;8.23;;;13.70;99.90;;;;;;5012272;28;20026;-73
2022/04/16 08:47:27;;;;;;;15.55;8.60;;;13.60;99.90;;;;;;5009409;28;20034;-70
2022/04/16 08:49:53;;;;;;;13.60;8.07;;;13.50;99.90;;;;;;5012661;28;20373;-71
2022/04/16 08:52:28;;;;;;;14.18;7.85;;;13.40;99.90;;;;;;5012429;28;20041;-69
2022/04/16 08:54:55;;;;;;;11.63;7.38;;;13.70;99.90;;;;;;5012840;28;20029;-71
2022/04/16 08:57:21;;;;;;;12.85;7.25;;;14.20;99.90;;;;;;5012791;28;20018;-70
2022/04/16 08:59:51;;;;;;;14.70;7.35;;;14.70;99.90;;;;;;5012675;28;20492;-67
2022/04/16 09:02:18;;;;;;;15.68;8.60;;;14.60;99.90;;;;;;5012342;28;20073;-68
2022/04/16 09:04:45;;;;;;;10.88;6.05;;;15.10;99.90;;;;;;5012336;28;20030;-68
2022/04/16 09:07:12;;;;;;;12.15;6.90;;;15.00;99.90;;;;;;4996134;28;20133;-71
2022/04/16 09:09:38;;;;;;;13.15;7.38;;;14.90;99.90;;;;;;5012051;28;20065;-66
2022/04/16 09:12:16;;;;;;;12.45;7.40;;;15.30;99.90;;;;;;5012721;28;20424;-71
2022/04/16 09:14:44;;;;;;;13.73;7.68;;;15.70;99.70;;;;;;5012397;28;20433;-71
2022/04/16 09:17:18;;;;;;;15.13;7.22;;;15.50;98.20;;;;;;5012614;28;20025;-71
2022/04/16 09:19:53;;;;;;;11.18;7.45;;;15.50;99.90;;;;;;5012221;28;20053;-65
2022/04/16 09:22:35;;;;;;;14.52;7.35;;;15.60;99.40;;;;;;5012259;28;20132;-67
2022/04/16 09:25:02;;;;;;;13.32;7.47;;;16.00;98.60;;;;;;5012454;28;20120;-68
2022/04/16 09:27:46;;;;;;;11.52;6.15;;;16.10;99.60;;;;;;5012137;28;20041;-67
2022/04/16 09:30:22;;;;;;;11.35;6.45;;;16.20;99.10;;;;;;5012031;28;20029;-69
2022/04/16 09:32:47;;;;;;;11.35;6.38;;;15.80;93.90;;;;;;5012282;28;20117;-71
2022/04/16 09:35:31;;;;;;;17.35;7.03;;;16.00;96.30;;;;;;5011743;28;20098;-67
2022/04/16 09:38:02;;;;;;;11.45;6.20;;;15.80;96.00;;;;;;5010255;28;20022;-72
2022/04/16 09:40:36;;;;;;;10.30;5.85;;;15.50;97.80;;;;;;5006943;28;20531;-70
2022/04/16 09:43:05;;;;;;;11.48;6.10;;;15.30;95.30;;;;;;5009383;28;20566;-70
2022/04/16 09:45:32;;;;;;;11.52;5.85;;;15.60;96.10;;;;;;5009480;28;20044;-71
2022/04/16 09:47:59;;;;;;;9.57;6.28;;;15.40;96.50;;;;;;5008419;28;20519;-72
2022/04/16 09:50:26;;;;;;;10.35;6.32;;;15.60;96.90;;;;;;5009813;28;20050;-71
2022/04/16 09:52:55;;;;;;;11.50;6.32;;;15.80;98.70;;;;;;5010713;28;21158;-74
2022/04/16 09:55:23;;;;;;;10.50;6.38;;;15.90;96.60;;;;;;5010660;28;20032;-72
2022/04/16 09:57:58;;;;;;;10.60;5.22;;;16.00;96.00;;;;;;5010690;28;20038;-73
2022/04/16 10:00:26;;;;;;;9.38;5.15;;;16.30;94.50;;;;;;5010905;28;20018;-73
2022/04/16 10:02:54;;;;;;;9.50;5.30;;;16.20;95.00;;;;;;5010815;28;20522;-73
2022/04/16 10:05:24;;;;;;;10.00;5.28;;;16.30;93.40;;;;;;5011189;28;20524;-68
2022/04/16 10:07:52;;;;;;;11.07;6.18;;;16.30;94.70;;;;;;5010871;28;20096;-71
2022/04/16 10:10:30;;;;;;;7.88;5.22;;;16.30;94.20;;;;;;5010837;28;20447;-69
2022/04/16 10:13:04;;;;;;;8.98;5.30;;;16.40;95.20;;;;;;5010754;28;20770;-70
2022/04/16 10:15:42;;;;;;;7.47;5.32;;;16.60;92.60;;;;;;5009816;28;20026;-67
2022/04/16 10:18:11;;;;;;;6.38;3.83;;;16.70;94.30;;;;;;5009886;28;20040;-73
2022/04/16 10:20:37;;;;;;;6.60;4.10;;;16.60;87.90;;;;;;5010600;28;20065;-66
2022/04/16 10:23:04;;;;;;;7.13;3.60;;;16.40;85.50;;;;;;5010292;28;20033;-74
2022/04/16 10:25:40;;;;;;;4.85;3.10;;;16.70;85.20;;;;;;5010372;28;20484;-73
2022/04/16 10:28:11;;;;;;;6.70;4.22;;;16.70;80.70;;;;;;5009641;28;20030;-67
2022/04/16 10:30:49;;;;;;;9.88;3.58;;;16.70;82.30;;;;;;5010824;28;20020;-71
2022/04/16 10:33:25;;;;;;;5.82;3.10;;;16.90;85.90;;;;;;5008323;28;20661;-68
2022/04/16 10:35:56;;;;;;;3.38;2.35;;;17.30;82.50;;;;;;5009698;28;20088;-72
2022/04/16 10:38:24;;;;;;;7.90;4.00;;;17.50;81.80;;;;;;5025854;28;20061;-73
2022/04/16 10:41:10;;;;;;;9.68;3.75;;;17.40;79.80;;;;;;5010074;28;20077;-73
2022/04/16 10:43:36;;;;;;;4.50;3.08;;;17.50;79.80;;;;;;5008078;28;20030;-73
2022/04/16 10:46:04;;;;;;;5.53;2.67;;;17.50;77.50;;;;;;5010703;28;20026;-65
2022/04/16 10:48:39;;;;;;;8.88;3.40;;;17.40;80.30;;;;;;5009985;28;20041;-73
2022/04/16 10:51:06;;;;;;;6.07;3.63;;;17.00;78.50;;;;;;5009696;28;20050;-72
2022/04/16 10:53:34;;;;;;;11.15;3.60;;;16.50;76.60;;;;;;5008061;28;20032;-72
2022/04/16 10:56:13;;;;;;;4.65;2.80;;;16.30;80.70;;;;;;4995297;28;20104;-71
2022/04/16 10:58:40;;;;;;;3.70;2.50;;;16.60;78.80;;;;;;5008251;28;20054;-67
2022/04/16 11:01:12;;;;;;;6.88;2.97;;;17.10;77.20;;;;;;5009137;28;20022;-72
2022/04/16 11:03:46;;;;;;;5.93;2.97;;;17.00;76.50;;;;;;5014472;28;20029;-73
2022/04/16 11:06:13;;;;;;;5.95;3.00;;;17.30;78.50;;;;;;5014407;28;20056;-70
2022/04/16 11:08:40;;;;;;;3.97;2.80;;;17.20;74.20;;;;;;5014885;28;20080;-73
2022/04/16 11:11:07;;;;;;;5.60;3.08;;;17.40;74.60;;;;;;5015226;28;20376;-72
2022/04/16 11:13:38;;;;;;;4.55;3.03;;;17.20;73.50;;;;;;5015198;28;20068;-73
2022/04/16 11:16:05;;;;;;;5.28;2.33;;;17.10;75.00;;;;;;5015240;28;20026;-73
2022/04/16 11:18:44;;;;;;;3.50;2.30;;;17.00;73.50;;;;;;5014983;28;20056;-72
2022/04/16 11:21:12;;;;;;;3.90;2.10;;;16.80;75.70;;;;;;5015081;28;20033;-73
2022/04/16 11:23:46;;;;;;;5.20;2.63;;;16.70;72.80;;;;;;5014636;28;20515;-72
2022/04/16 11:34:30;;;;;;;7.85;3.10;;;17.60;74.40;;;;;;5014764;28;20034;-72
2022/04/16 11:36:58;;;;;;;4.20;2.58;;;17.50;73.50;;;;;;5014630;28;20022;-72
2022/04/16 11:39:28;;;;;;;4.40;2.22;;;17.30;72.90;;;;;;5014439;28;20656;-71
2022/04/16 11:41:55;;;;;;;3.55;2.38;;;17.20;71.70;;;;;;5014357;28;20030;-71
2022/04/16 11:44:38;;;;;;;3.63;2.03;;;17.30;74.50;;;;;;5014167;28;20030;-73
2022/04/16 11:47:17;;;;;;;4.38;2.67;;;17.00;72.20;;;;;;5014441;28;20477;-73
2022/04/16 11:49:52;;;;;;;7.85;2.65;;;17.20;73.70;;;;;;5014078;28;20100;-71
2022/04/16 11:52:28;;;;;;;5.05;2.85;;;17.10;72.90;;;;;;5013990;28;20030;-73
2022/04/16 11:55:08;;;;;;;6.13;3.00;;;16.90;74.30;;;;;;5014102;28;20117;-73
2022/04/16 11:57:34;;;;;;;4.32;2.50;;;16.60;73.70;;;;;;5013703;28;20041;-72
2022/04/16 12:00:10;;;;;;;5.25;2.67;;;16.50;74.80;;;;;;5013723;28;20465;-73
2022/04/16 12:02:47;;;;;;;6.63;2.95;;;16.40;75.20;;;;;;5013917;28;20034;-73
2022/04/16 12:05:23;;;;;;;4.43;2.50;;;16.30;74.90;;;;;;5003696;28;20346;-75
2022/04/16 12:07:49;;;;;;;5.38;3.08;;;16.40;75.90;;;;;;5010776;28;20042;-74
2022/04/16 12:10:16;;;;;;;8.75;2.92;;;16.50;76.70;;;;;;5003365;28;20409;-71
2022/04/16 12:12:50;;;;;;;4.18;2.15;;;16.50;75.50;;;;;;5010231;28;20088;-71
2022/04/16 12:15:19;;;;;;;4.63;2.28;;;16.50;76.60;;;;;;5013640;28;20025;-69
2022/04/16 12:17:45;;;;;;;3.33;2.17;;;16.80;76.80;;;;;;5013949;28;20437;-68
2022/04/16 12:20:12;;;;;;;2.85;1.80;;;17.00;73.90;;;;;;5013704;28;20057;-67
2022/04/16 12:22:49;;;;;;;4.50;2.38;;;17.00;72.20;;;;;;5013307;28;20038;-69
2022/04/16 12:25:24;;;;;;;4.35;2.42;;;17.10;71.50;;;;;;5013281;28;20037;-70
2022/04/16 12:27:55;;;;;;;8.20;3.63;;;17.10;73.20;;;;;;5013669;28;20117;-70
2022/04/16 12:30:26;;;;;;;6.55;2.38;;;17.20;75.10;;;;;;5013140;28;20556;-72
2022/04/16 12:33:06;;;;;;;5.28;2.15;;;17.50;74.80;;;;;;5012910;28;20037;-72
2022/04/16 12:35:41;;;;;;;5.00;2.55;;;17.50;72.60;;;;;;5012495;28;20497;-74
2022/04/16 12:38:10;;;;;;;2.97;2.03;;;17.70;74.90;;;;;;5012831;28;20033;-74
2022/04/16 12:40:36;;;;;;;6.25;2.47;;;18.00;74.30;;;;;;5011664;28;20026;-73
2022/04/16 12:43:02;;;;;;;5.00;3.15;;;17.80;72.30;;;;;;5012903;28;20069;-74
2022/04/16 12:45:32;;;;;;;3.95;2.63;;;17.70;72.40;;;;;;5028127;28;20122;-75
2022/04/16 12:47:59;;;;;;;7.35;2.85;;;17.90;74.10;;;;;;5013211;28;20502;-72
2022/04/16 12:50:26;;;;;;;4.78;2.63;;;17.90;71.90;;;;;;5011493;28;20562;-73
2022/04/16 12:52:52;;;;;;;5.45;2.40;;;17.80;73.70;;;;;;5012804;28;20396;-69
2022/04/16 12:55:18;;;;;;;4.20;2.30;;;17.50;71.10;;;;;;5012721;28;20034;-74
2022/04/16 12:57:44;;;;;;;2.58;1.73;;;17.10;72.30;;;;;;5013106;28;20022;-73
2022/04/16 13:00:12;;;;;;;3.45;2.33;;;17.10;71.00;;;;;;5012405;28;20365;-73
2022/04/16 13:02:40;;;;;;;3.70;2.05;;;17.10;73.40;;;;;;5012488;28;20022;-72
2022/04/16 13:05:11;;;;;;;3.78;2.38;;;17.00;74.10;;;;;;5012470;28;20033;-73
2022/04/16 13:07:38;;;;;;;4.70;3.05;;;17.10;70.90;;;;;;5012244;28;20033;-72
2022/04/16 13:10:05;;;;;;;5.20;2.75;;;17.00;74.90;;;;;;5005142;28;20015;-72